createdAt,value
2018-01-12T00:00:24.466Z,3.30
2018-01-12T00:02:51.989Z,3.30
2018-01-12T00:05:20.286Z,3.30
2018-01-12T00:07:48.159Z,3.20
2018-01-12T00:10:15.686Z,3.10
2018-01-12T00:12:43.227Z,3.10
2018-01-12T00:15:10.755Z,3.10
2018-01-12T00:17:38.293Z,3.10
2018-01-12T00:20:05.818Z,3.00
2018-01-12T00:22:35.858Z,3.00
2018-01-12T00:25:04.152Z,2.90
2018-01-12T00:27:32.472Z,2.90
2018-01-12T00:29:59.995Z,2.90
2018-01-12T00:32:27.554Z,2.90
2018-01-12T00:34:55.853Z,3.00
2018-01-12T00:37:23.374Z,2.90
2018-01-12T00:39:50.917Z,3.00
2018-01-12T00:42:18.451Z,3.00
2018-01-12T00:44:45.998Z,3.10
2018-01-12T00:47:13.517Z,3.00
2018-01-12T00:49:41.067Z,3.00
2018-01-12T00:52:08.605Z,3.00
2018-01-12T00:54:36.142Z,3.00
2018-01-12T00:57:03.675Z,3.00
2018-01-12T00:59:32.155Z,3.00
2018-01-12T01:01:59.682Z,2.90
2018-01-12T01:04:27.203Z,3.00
2018-01-12T01:06:54.746Z,3.00
2018-01-12T01:09:23.043Z,3.10
2018-01-12T01:11:50.584Z,3.00
2018-01-12T01:14:18.869Z,3.00
2018-01-12T01:16:47.183Z,3.00
2018-01-12T01:19:14.704Z,3.00
2018-01-12T01:21:43.013Z,3.00
2018-01-12T01:24:10.551Z,3.00
2018-01-12T01:26:38.871Z,2.90
2018-01-12T01:29:06.390Z,2.90
2018-01-12T01:31:34.685Z,2.90
2018-01-12T01:34:02.230Z,2.80
2018-01-12T01:39:21.153Z,2.90
2018-01-12T01:41:48.681Z,2.80
2018-01-12T01:44:16.224Z,2.80
2018-01-12T01:46:44.509Z,2.80
2018-01-12T01:49:12.925Z,2.80
2018-01-12T01:51:40.445Z,2.80
2018-01-12T01:54:08.761Z,2.90
2018-01-12T01:56:36.280Z,2.90
2018-01-12T01:59:04.601Z,2.90
2018-01-12T02:01:32.125Z,2.90
2018-01-12T02:04:00.412Z,2.90
2018-01-12T02:06:27.954Z,2.90
2018-01-12T02:08:55.473Z,2.90
2018-01-12T02:11:23.010Z,2.90
2018-01-12T02:13:50.530Z,2.90
2018-01-12T02:16:18.080Z,3.00
2018-01-12T02:18:45.601Z,3.00
2018-01-12T02:21:13.145Z,2.90
2018-01-12T02:23:40.665Z,2.90
2018-01-12T02:26:08.209Z,2.90
2018-01-12T02:28:36.498Z,2.90
2018-01-12T02:31:04.019Z,2.90
2018-01-12T02:33:31.562Z,2.90
2018-01-12T02:35:59.094Z,2.90
2018-01-12T02:38:27.400Z,2.90
2018-01-12T02:40:54.930Z,2.90
2018-01-12T02:45:57.240Z,3.00
2018-01-12T02:48:25.542Z,3.00
2018-01-12T02:50:53.069Z,3.00
2018-01-12T02:53:20.614Z,3.00
2018-01-12T02:55:48.154Z,2.90
2018-01-12T02:58:15.701Z,2.90
2018-01-12T03:00:43.230Z,2.90
2018-01-12T03:03:10.773Z,2.90
2018-01-12T03:05:39.057Z,2.90
2018-01-12T03:08:07.346Z,2.90
2018-01-12T03:10:34.885Z,2.90
2018-01-12T03:13:02.402Z,3.00
2018-01-12T03:15:29.950Z,2.90
2018-01-12T03:17:57.464Z,2.90
2018-01-12T03:20:25.003Z,2.90
2018-01-12T03:22:52.522Z,2.90
2018-01-12T03:25:20.063Z,2.90
2018-01-12T03:27:48.352Z,2.90
2018-01-12T03:30:15.898Z,2.90
2018-01-12T03:32:44.180Z,2.90
2018-01-12T03:35:12.489Z,2.90
2018-01-12T03:37:40.016Z,2.90
2018-01-12T03:40:07.545Z,2.90
2018-01-12T03:42:35.089Z,2.90
2018-01-12T03:45:02.612Z,3.00
2018-01-12T03:47:30.918Z,2.90
2018-01-12T03:49:58.441Z,2.90
2018-01-12T03:52:26.744Z,2.90
2018-01-12T03:54:54.264Z,2.90
2018-01-12T03:57:21.806Z,2.90
2018-01-12T03:59:49.315Z,2.90
2018-01-12T04:02:17.616Z,2.90
2018-01-12T04:04:45.142Z,2.90
2018-01-12T04:07:13.439Z,2.90
2018-01-12T04:09:41.746Z,2.90
2018-01-12T04:12:09.268Z,2.90
2018-01-12T04:14:37.569Z,2.90
2018-01-12T04:17:05.090Z,2.90
2018-01-12T04:19:32.634Z,2.90
2018-01-12T04:22:00.158Z,2.90
2018-01-12T04:24:27.715Z,2.90
2018-01-12T04:26:55.238Z,2.90
2018-01-12T04:29:22.797Z,2.90
2018-01-12T04:31:50.322Z,2.90
2018-01-12T04:34:17.851Z,2.90
2018-01-12T04:36:45.394Z,2.90
2018-01-12T04:39:13.685Z,2.90
2018-01-12T04:41:41.229Z,2.90
2018-01-12T04:44:09.519Z,3.00
2018-01-12T04:46:37.830Z,3.00
2018-01-12T04:49:05.357Z,3.00
2018-01-12T04:51:33.666Z,3.00
2018-01-12T04:54:01.191Z,3.00
2018-01-12T04:56:29.521Z,3.10
2018-01-12T04:58:57.054Z,3.00
2018-01-12T05:01:24.608Z,3.10
2018-01-12T05:03:52.928Z,3.10
2018-01-12T05:06:20.475Z,3.00
2018-01-12T05:08:48.012Z,3.10
2018-01-12T05:11:15.565Z,3.10
2018-01-12T05:13:43.883Z,3.00
2018-01-12T05:16:11.409Z,3.00
2018-01-12T05:18:39.730Z,3.00
2018-01-12T05:21:07.250Z,3.00
2018-01-12T05:23:34.794Z,3.00
2018-01-12T05:26:03.094Z,3.10
2018-01-12T05:28:30.638Z,3.10
2018-01-12T05:30:58.937Z,3.10
2018-01-12T05:33:26.473Z,3.10
2018-01-12T05:35:54.765Z,3.10
2018-01-12T05:38:23.075Z,3.10
2018-01-12T05:40:50.605Z,3.10
2018-01-12T05:43:18.920Z,3.10
2018-01-12T05:45:46.446Z,3.10
2018-01-12T05:48:14.738Z,3.10
2018-01-12T05:50:43.037Z,3.10
2018-01-12T05:53:10.582Z,3.10
2018-01-12T05:55:38.150Z,3.10
2018-01-12T05:58:05.670Z,3.10
2018-01-12T06:00:33.978Z,3.10
2018-01-12T06:03:13.486Z,3.10
2018-01-12T06:05:52.970Z,3.10
2018-01-12T06:08:20.503Z,3.10
2018-01-12T06:10:48.827Z,3.10
2018-01-12T06:13:16.346Z,3.00
2018-01-12T06:15:44.646Z,3.10
2018-01-12T06:18:12.173Z,3.00
2018-01-12T06:20:39.717Z,3.10
2018-01-12T06:23:07.284Z,3.10
2018-01-12T06:25:34.786Z,3.10
2018-01-12T06:28:02.325Z,3.00
2018-01-12T06:30:30.623Z,3.00
2018-01-12T06:32:58.157Z,3.00
2018-01-12T06:35:26.443Z,3.00
2018-01-12T06:37:54.751Z,3.00
2018-01-12T06:40:22.273Z,3.00
2018-01-12T06:42:50.582Z,3.10
2018-01-12T06:45:18.098Z,3.00
2018-01-12T06:47:45.639Z,3.00
2018-01-12T06:50:13.157Z,3.10
2018-01-12T06:52:40.710Z,3.10
2018-01-12T06:55:08.242Z,3.00
2018-01-12T06:57:35.762Z,3.00
2018-01-12T07:00:03.306Z,3.00
2018-01-12T07:02:30.877Z,3.00
2018-01-12T07:04:58.425Z,3.00
2018-01-12T07:07:25.942Z,3.00
2018-01-12T07:09:53.772Z,3.00
2018-01-12T07:12:22.577Z,3.00
2018-01-12T07:14:50.479Z,3.00
2018-01-12T07:17:19.111Z,3.10
2018-01-12T07:19:46.998Z,3.10
2018-01-12T07:22:26.510Z,3.10
2018-01-12T07:24:54.056Z,3.10
2018-01-12T07:29:55.541Z,3.10
2018-01-12T07:32:23.088Z,3.10
2018-01-12T07:34:51.370Z,3.10
2018-01-12T07:37:18.905Z,3.10
2018-01-12T07:39:46.419Z,3.10
2018-01-12T07:42:14.016Z,3.10
2018-01-12T07:44:41.517Z,3.10
2018-01-12T07:47:09.065Z,3.10
2018-01-12T07:49:36.588Z,3.20
2018-01-12T07:52:04.133Z,3.20
2018-01-12T07:54:31.655Z,3.20
2018-01-12T07:56:59.198Z,3.20
2018-01-12T07:59:27.479Z,3.20
2018-01-12T08:02:00.890Z,3.10
2018-01-12T08:04:28.414Z,3.20
2018-01-12T08:06:56.741Z,3.20
2018-01-12T08:09:24.281Z,3.20
2018-01-12T08:11:51.801Z,3.30
2018-01-12T08:14:20.116Z,3.30
2018-01-12T08:16:47.646Z,3.30
2018-01-12T08:19:15.187Z,3.40
2018-01-12T08:21:42.697Z,3.40
2018-01-12T08:24:10.241Z,3.40
2018-01-12T08:26:38.529Z,3.40
2018-01-12T08:29:06.825Z,3.40
2018-01-12T08:31:34.393Z,3.40
2018-01-12T08:34:01.933Z,3.50
2018-01-12T08:36:29.442Z,3.50
2018-01-12T08:38:56.957Z,3.60
2018-01-12T08:41:24.498Z,3.60
2018-01-12T08:43:52.783Z,3.60
2018-01-12T08:46:21.084Z,3.60
2018-01-12T08:48:48.603Z,3.60
2018-01-12T08:51:16.173Z,3.70
2018-01-12T08:53:44.456Z,3.70
2018-01-12T08:56:12.759Z,3.70
2018-01-12T08:58:40.271Z,3.70
2018-01-12T09:01:07.801Z,3.70
2018-01-12T09:03:35.317Z,3.80
2018-01-12T09:06:02.852Z,3.80
2018-01-12T09:08:30.370Z,3.80
2018-01-12T09:10:57.885Z,3.80
2018-01-12T09:13:37.981Z,3.80
2018-01-12T09:16:06.307Z,3.80
2018-01-12T09:18:46.487Z,3.80
2018-01-12T09:21:25.553Z,3.80
2018-01-12T09:23:54.557Z,3.90
2018-01-12T09:26:22.841Z,3.90
2018-01-12T09:28:50.374Z,3.90
2018-01-12T09:31:17.890Z,4.00
2018-01-12T09:33:48.108Z,4.00
2018-01-12T09:36:16.393Z,4.00
2018-01-12T09:38:52.652Z,4.00
2018-01-12T09:41:20.929Z,4.10
2018-01-12T09:43:49.233Z,4.10
2018-01-12T09:46:16.756Z,4.10
2018-01-12T09:48:51.069Z,4.10
2018-01-12T09:51:18.572Z,4.10
2018-01-12T09:53:46.108Z,4.20
2018-01-12T09:56:14.387Z,4.20
2018-01-12T09:58:45.525Z,4.20
2018-01-12T10:01:21.497Z,4.30
2018-01-12T10:03:49.776Z,4.30
2018-01-12T10:06:17.308Z,4.30
2018-01-12T10:08:44.821Z,4.30
2018-01-12T10:11:12.356Z,4.30
2018-01-12T10:13:39.869Z,4.40
2018-01-12T10:16:07.401Z,4.40
2018-01-12T10:18:35.813Z,4.40
2018-01-12T10:21:15.201Z,4.40
2018-01-12T10:23:42.725Z,4.50
2018-01-12T10:26:10.264Z,4.50
2018-01-12T10:28:49.586Z,4.40
2018-01-12T10:31:17.131Z,4.40
2018-01-12T10:36:55.057Z,4.30
2018-01-12T10:39:22.572Z,4.30
2018-01-12T10:42:02.864Z,4.30
2018-01-12T10:44:30.386Z,4.40
2018-01-12T10:47:14.741Z,4.30
2018-01-12T10:49:54.170Z,4.30
2018-01-12T10:52:21.705Z,4.20
2018-01-12T10:54:49.226Z,4.10
2018-01-12T10:57:16.761Z,4.10
2018-01-12T10:59:44.281Z,4.00
2018-01-12T11:02:11.829Z,4.00
2018-01-12T11:04:39.359Z,4.00
2018-01-12T11:07:07.769Z,4.00
2018-01-12T11:09:35.282Z,4.00
2018-01-12T11:12:02.801Z,4.10
2018-01-12T11:14:30.347Z,4.10
2018-01-12T11:16:59.914Z,4.10
2018-01-12T11:19:28.214Z,4.20
2018-01-12T11:21:55.729Z,4.20
2018-01-12T11:24:23.262Z,4.20
2018-01-12T11:26:50.811Z,4.20
2018-01-12T11:29:18.343Z,4.20
2018-01-12T11:31:46.621Z,4.20
2018-01-12T11:34:14.926Z,4.30
2018-01-12T11:36:42.442Z,4.30
2018-01-12T11:39:09.982Z,4.30
2018-01-12T11:41:38.266Z,4.30
2018-01-12T11:44:05.786Z,4.30
2018-01-12T11:46:33.317Z,4.30
2018-01-12T11:49:00.832Z,4.30
2018-01-12T11:51:28.365Z,4.30
2018-01-12T11:53:55.881Z,4.40
2018-01-12T11:56:24.189Z,4.40
2018-01-12T11:58:51.711Z,4.40
2018-01-12T12:01:19.241Z,4.40
2018-01-12T12:03:46.756Z,4.40
2018-01-12T12:06:14.337Z,4.40
2018-01-12T12:08:41.863Z,4.40
2018-01-12T12:11:10.146Z,4.40
2018-01-12T12:13:38.450Z,4.40
2018-01-12T12:16:06.009Z,4.40
2018-01-12T12:18:34.289Z,4.50
2018-01-12T12:21:01.805Z,4.50
2018-01-12T12:23:29.337Z,4.50
2018-01-12T12:25:56.853Z,4.50
2018-01-12T12:28:24.444Z,4.60
2018-01-12T12:30:51.965Z,4.50
2018-01-12T12:33:19.486Z,4.50
2018-01-12T12:35:47.808Z,4.50
2018-01-12T12:38:15.335Z,4.50
2018-01-12T12:40:42.870Z,4.50
2018-01-12T12:43:10.385Z,4.60
2018-01-12T12:45:37.921Z,4.60
2018-01-12T12:48:05.442Z,4.60
2018-01-12T12:50:32.979Z,4.50
2018-01-12T12:53:00.505Z,4.50
2018-01-12T12:55:28.815Z,4.50
2018-01-12T12:57:56.333Z,4.50
2018-01-12T13:00:23.882Z,4.60
2018-01-12T13:02:51.404Z,4.60
2018-01-12T13:05:18.937Z,4.60
2018-01-12T13:07:46.477Z,4.60
2018-01-12T13:10:14.769Z,4.60
2018-01-12T13:12:43.074Z,4.60
2018-01-12T13:15:10.604Z,4.60
2018-01-12T13:17:38.156Z,4.50
2018-01-12T13:20:06.442Z,4.40
2018-01-12T13:22:34.865Z,4.40
2018-01-12T13:25:02.384Z,4.40
2018-01-12T13:27:30.676Z,4.50
2018-01-12T13:29:58.214Z,4.50
2018-01-12T13:32:26.496Z,4.60
2018-01-12T13:34:54.817Z,4.60
2018-01-12T13:37:22.330Z,4.60
2018-01-12T13:39:50.647Z,4.50
2018-01-12T13:42:18.206Z,4.60
2018-01-12T13:44:45.749Z,4.50
2018-01-12T13:47:13.274Z,4.50
2018-01-12T13:49:40.817Z,4.50
2018-01-12T13:52:08.333Z,4.50
2018-01-12T13:54:35.862Z,4.50
2018-01-12T13:57:03.409Z,4.50
2018-01-12T13:59:31.038Z,4.50
2018-01-12T14:01:58.575Z,4.50
2018-01-12T14:04:26.098Z,4.50
2018-01-12T14:06:53.642Z,4.50
2018-01-12T14:09:21.165Z,4.50
2018-01-12T14:11:48.726Z,4.50
2018-01-12T14:14:16.248Z,4.50
2018-01-12T14:16:44.558Z,4.40
2018-01-12T14:19:12.128Z,4.50
2018-01-12T14:21:39.657Z,4.50
2018-01-12T14:24:07.961Z,4.50
2018-01-12T14:26:35.528Z,4.40
2018-01-12T14:29:03.073Z,4.50
2018-01-12T14:31:30.596Z,4.50
2018-01-12T14:33:58.129Z,4.50
2018-01-12T14:36:25.654Z,4.50
2018-01-12T14:38:53.208Z,4.40
2018-01-12T14:41:20.738Z,4.50
2018-01-12T14:43:48.279Z,4.50
2018-01-12T14:46:15.807Z,4.50
2018-01-12T14:48:43.351Z,4.40
2018-01-12T14:51:10.877Z,4.40
2018-01-12T14:53:38.422Z,4.40
2018-01-12T14:56:05.936Z,4.40
2018-01-12T14:58:33.453Z,4.40
2018-01-12T15:01:00.998Z,4.40
2018-01-12T15:03:28.513Z,4.40
2018-01-12T15:05:56.050Z,4.30
2018-01-12T15:08:24.333Z,4.30
2018-01-12T15:10:52.630Z,4.30
2018-01-12T15:13:20.154Z,4.30
2018-01-12T15:15:47.693Z,4.30
2018-01-12T15:18:15.210Z,4.30
2018-01-12T15:20:42.754Z,4.40
2018-01-12T15:23:11.032Z,4.30
2018-01-12T15:25:39.316Z,4.30
2018-01-12T15:28:06.853Z,4.30
2018-01-12T15:30:34.366Z,4.30
2018-01-12T15:33:01.901Z,4.20
2018-01-12T15:35:29.426Z,4.20
2018-01-12T15:37:56.964Z,4.30
2018-01-12T15:40:24.477Z,4.20
2018-01-12T15:42:52.013Z,4.30
2018-01-12T15:45:19.533Z,4.20
2018-01-12T15:47:47.052Z,4.30
2018-01-12T15:50:15.362Z,4.30
2018-01-12T15:52:42.878Z,4.30
2018-01-12T15:55:11.177Z,4.20
2018-01-12T15:57:38.700Z,4.20
2018-01-12T16:00:06.238Z,4.20
2018-01-12T16:02:33.757Z,4.10
2018-01-12T16:05:01.302Z,4.10
2018-01-12T16:07:29.593Z,4.10
2018-01-12T16:09:57.137Z,4.10
2018-01-12T16:12:25.422Z,4.10
2018-01-12T16:14:53.728Z,4.10
2018-01-12T16:17:21.254Z,4.10
2018-01-12T16:19:49.542Z,4.10
2018-01-12T16:22:17.082Z,4.10
2018-01-12T16:24:44.625Z,4.10
2018-01-12T16:27:12.165Z,4.10
2018-01-12T16:29:39.682Z,4.10
2018-01-12T16:32:07.985Z,4.10
2018-01-12T16:34:35.506Z,4.00
2018-01-12T16:37:03.813Z,4.10
2018-01-12T16:39:31.332Z,4.00
2018-01-12T16:41:58.870Z,4.10
2018-01-12T16:44:26.385Z,4.10
2018-01-12T16:46:53.925Z,4.10
2018-01-12T16:49:22.217Z,4.10
2018-01-12T16:51:49.766Z,4.10
2018-01-12T16:54:18.055Z,4.10
2018-01-12T16:56:46.341Z,4.10
2018-01-12T16:59:13.882Z,4.10
2018-01-12T17:01:42.164Z,4.10
2018-01-12T17:04:10.473Z,4.10
2018-01-12T17:06:37.997Z,4.10
2018-01-12T17:09:06.305Z,4.10
2018-01-12T17:11:33.829Z,4.10
2018-01-12T17:14:01.366Z,4.10
2018-01-12T17:16:28.893Z,4.10
2018-01-12T17:18:56.432Z,4.20
2018-01-12T17:21:24.723Z,4.10
2018-01-12T17:23:52.267Z,4.10
2018-01-12T17:26:20.549Z,4.10
2018-01-12T17:28:48.855Z,4.10
2018-01-12T17:31:16.378Z,4.10
2018-01-12T17:33:44.690Z,4.10
2018-01-12T17:36:12.209Z,4.10
2018-01-12T17:38:39.754Z,4.10
2018-01-12T17:41:07.270Z,4.10
2018-01-12T17:43:34.794Z,4.10
2018-01-12T17:46:02.335Z,4.10
2018-01-12T17:48:29.851Z,4.10
2018-01-12T17:50:57.432Z,4.10
2018-01-12T17:53:24.950Z,4.10
2018-01-12T17:55:52.487Z,4.10
2018-01-12T17:58:20.009Z,4.10
2018-01-12T18:00:47.546Z,4.10
2018-01-12T18:03:15.834Z,4.10
2018-01-12T18:05:44.137Z,4.10
2018-01-12T18:08:11.681Z,4.10
2018-01-12T18:10:39.206Z,4.10
2018-01-12T18:13:06.751Z,4.10
2018-01-12T18:15:34.277Z,4.10
2018-01-12T18:18:01.817Z,4.10
2018-01-12T18:20:30.106Z,4.10
2018-01-12T18:22:57.650Z,4.10
2018-01-12T18:25:25.948Z,4.10
2018-01-12T18:27:53.514Z,4.10
2018-01-12T18:30:21.029Z,4.10
2018-01-12T18:32:48.572Z,4.10
2018-01-12T18:35:16.092Z,4.10
2018-01-12T18:37:43.634Z,4.10
2018-01-12T18:40:11.921Z,4.10
2018-01-12T18:42:39.457Z,4.10
2018-01-12T18:45:07.741Z,4.10
2018-01-12T18:47:36.050Z,4.10
2018-01-12T18:50:03.570Z,4.10
2018-01-12T18:52:31.084Z,4.10
2018-01-12T18:54:58.622Z,4.10
2018-01-12T18:57:26.147Z,4.10
2018-01-12T18:59:53.680Z,4.00
2018-01-12T19:02:21.201Z,4.10
2018-01-12T19:04:48.745Z,4.10
2018-01-12T19:07:17.029Z,4.10
2018-01-12T19:09:45.330Z,4.10
2018-01-12T19:12:12.850Z,4.10
2018-01-12T19:14:41.168Z,4.10
2018-01-12T19:17:08.693Z,4.00
2018-01-12T19:19:37.002Z,4.10
2018-01-12T19:22:04.574Z,4.00
2018-01-12T19:24:32.113Z,4.10
2018-01-12T19:26:59.633Z,4.10
2018-01-12T19:29:27.174Z,4.10
2018-01-12T19:31:54.688Z,4.10
2018-01-12T19:34:22.973Z,4.10
2018-01-12T19:36:50.513Z,4.10
2018-01-12T19:39:18.793Z,4.10
2018-01-12T19:41:47.138Z,4.10
2018-01-12T19:44:14.700Z,4.10
2018-01-12T19:46:42.242Z,4.10
2018-01-12T19:49:09.763Z,4.10
2018-01-12T19:51:38.073Z,4.10
2018-01-12T19:54:05.598Z,4.10
2018-01-12T19:56:34.022Z,4.10
2018-01-12T19:59:01.764Z,4.10
2018-01-12T20:01:29.302Z,4.10
2018-01-12T20:03:57.602Z,4.10
2018-01-12T20:06:25.125Z,4.10
2018-01-12T20:08:52.662Z,4.10
2018-01-12T20:11:20.186Z,4.10
2018-01-12T20:13:47.729Z,4.10
2018-01-12T20:16:16.020Z,4.10
2018-01-12T20:18:43.601Z,4.10
2018-01-12T20:21:11.147Z,4.10
2018-01-12T20:23:38.670Z,4.10
2018-01-12T20:26:06.294Z,4.10
2018-01-12T20:28:33.809Z,4.10
2018-01-12T20:31:02.175Z,4.20
2018-01-12T20:33:29.696Z,4.10
2018-01-12T20:35:57.246Z,4.10
2018-01-12T20:38:24.774Z,4.10
2018-01-12T20:40:53.125Z,4.10
2018-01-12T20:43:20.642Z,4.10
2018-01-12T20:45:48.180Z,4.10
2018-01-12T20:48:16.507Z,4.10
2018-01-12T20:50:44.110Z,4.10
2018-01-12T20:53:11.628Z,4.10
2018-01-12T20:55:39.158Z,4.10
2018-01-12T20:58:06.706Z,4.10
2018-01-12T21:00:34.994Z,4.00
2018-01-12T21:03:02.537Z,4.00
2018-01-12T21:05:30.863Z,4.10
2018-01-12T21:07:58.441Z,4.10
2018-01-12T21:10:26.781Z,4.10
2018-01-12T21:12:54.330Z,4.10
2018-01-12T21:15:22.619Z,4.10
2018-01-12T21:17:50.137Z,4.10
2018-01-12T21:20:17.715Z,4.00
2018-01-12T21:22:46.002Z,4.10
2018-01-12T21:25:14.301Z,4.10
2018-01-12T21:27:41.817Z,4.10
2018-01-12T21:30:09.358Z,4.10
2018-01-12T21:32:36.902Z,4.10
2018-01-12T21:35:04.460Z,4.10
2018-01-12T21:37:32.020Z,4.10
2018-01-12T21:42:33.594Z,4.10
2018-01-12T21:45:01.139Z,4.10
2018-01-12T21:47:29.469Z,4.10
2018-01-12T21:49:56.989Z,4.00
2018-01-12T21:52:24.537Z,4.00
2018-01-12T21:54:52.060Z,4.00
2018-01-12T21:57:19.609Z,4.10
2018-01-12T21:59:47.129Z,4.10
2018-01-12T22:02:14.710Z,4.10
2018-01-12T22:04:42.236Z,4.10
2018-01-12T22:07:10.542Z,4.10
2018-01-12T22:09:38.060Z,4.10
2018-01-12T22:12:06.365Z,4.10
2018-01-12T22:14:33.884Z,4.10
2018-01-12T22:17:01.466Z,4.10
2018-01-12T22:19:29.749Z,4.10
2018-01-12T22:21:57.292Z,4.10
2018-01-12T22:24:25.622Z,4.10
2018-01-12T22:26:53.143Z,4.10
2018-01-12T22:29:21.446Z,4.10
2018-01-12T22:31:49.555Z,4.10
2018-01-12T22:34:17.458Z,4.10
2018-01-12T22:36:45.062Z,4.10
2018-01-12T22:39:12.602Z,4.10
2018-01-12T22:41:40.928Z,4.10
2018-01-12T22:44:08.474Z,4.00
2018-01-12T22:46:35.996Z,4.10
2018-01-12T22:49:04.301Z,4.10
2018-01-12T22:51:31.821Z,4.10
2018-01-12T22:53:59.341Z,4.10
2018-01-12T22:56:26.887Z,4.10
2018-01-12T22:58:54.402Z,4.10
2018-01-12T23:01:21.946Z,4.10
2018-01-12T23:03:49.469Z,4.10
2018-01-12T23:06:17.009Z,4.00
2018-01-12T23:08:45.293Z,4.10
2018-01-12T23:11:12.876Z,4.10
2018-01-12T23:13:40.400Z,4.10
2018-01-12T23:16:08.700Z,4.10
2018-01-12T23:18:36.221Z,4.10
2018-01-12T23:21:04.571Z,4.00
2018-01-12T23:23:32.098Z,4.00
2018-01-12T23:25:59.626Z,4.00
2018-01-12T23:28:28.675Z,4.10
2018-01-12T23:30:56.197Z,4.00
2018-01-12T23:33:24.503Z,4.10
2018-01-12T23:35:52.061Z,4.10
2018-01-12T23:38:19.654Z,4.10
2018-01-12T23:40:47.164Z,4.10
2018-01-12T23:43:15.473Z,4.10
2018-01-12T23:45:42.999Z,4.10
2018-01-12T23:48:11.302Z,4.10
2018-01-12T23:50:38.822Z,4.10
2018-01-12T23:53:06.438Z,4.10
2018-01-12T23:55:33.997Z,4.10
2018-01-12T23:58:01.528Z,4.10
